< < Back
Terminal Aerodrome Forecast


Current Version              Previous Versions:   1  2  3  4  5  6  7  8  9  

Terminal Aerodrome Forecast

042
FTUS42 KGSP 262357 CCA
TAFCLT
TAF COR
KCLT 262357Z 2700/2724 18009KT P6SM VCSH BKN060 BKN250
      TEMPO 2702/2706 VRB10G22KT 2SM TSRA OVC025CB
     FM270600 20007KT P6SM -SHRA FEW030 OVC040
     FM271000 20005KT P6SM SCT008 OVC015
     FM271200 20006KT P6SM OVC008
     FM271500 20006KT P6SM OVC015
     FM271700 20006KT P6SM FEW035 BKN045 PROB30 2719/2723 4SM TSRA
      BKN025CB=

Latest METAR

162
SAUS70 KWBC 270300 RRA
MTRCLT
METAR KCLT 270252Z 25009KT 10SM FEW031 BKN055 BKN250 21/18 A3027 RMK AO2
PK WND 23030/0214 WSHFT 0159 TSB13E38RAB16E49 SLP241 TS MOV N
LTG DSNT NW-N P0018 60018 T02060178 53028


USA.gov is the U.S. government's official web portal to all federal, state and local government web resources and services.